Orfordville, Wisconsin
Current Conditions -  °F | °C
As of 7:45 AM on Friday 28 Nov 2014 (Local Time) from KJVL Reporting Station
Overcast Overcast  
Wind Chill:   Ceiling: 10000
Heat Index: 19°   Visibility: 10mi
Dew Point: 12°   Wind: 12mph
Humidity: 74%   Direction: 150°SSE
Pressure: 30.19"   Gusts: 17mph
Location:  42.63°N, 89.25°W
Report Text: KJVL 281345Z 15010G15KT 10SM SCT070 BKN100 OVC120 M07/M11 A3019
Loading
Personal Weather Stations






























Interactive Weather Map New forecast layout! Learn more

10-Day Weather Forecast

Advertisements
Track Severe Weather on mobile